James L. Oberstar — WDC6154 — position and weather

sailwx.info

Track history (hours):
 
Tides and Currents Weather Stations Pressure Air Temp Water Temp Dewpoint Dewpoint Depression Visibility Wind Speed Wind Dir Waves Ship Positions

James L. Oberstar

Owner: Destin Trading Corporation, harahan, LA. More information available from US FCC via Universal Licensing System and Coast Guard Vessel Documentation Center.

Last reported at 2017-Apr-04 14:47 UTC. Time now 2017-May-26 14:57 UTC.
Position N 29°59' W 090°24'.
Warning: this ship's position is 52 days out of date.

Length 26 m.

Type: Towing. MMSI: 367052120.

Date/timePositionNaut miles runAvg speedWind from/ knotsBaromVisibWave heightAir tempDewpointWater temp
2017-Apr-04 14:47N 29°59' W 090°24'5 5.9
2017-Apr-04 13:55N 30°02' W 090°28'3 6.6
2017-Apr-04 13:25N 30°03' W 090°32'11 6.7
2017-Apr-04 11:50N 30°01' W 090°44'2 7.0
2017-Apr-04 11:29N 30°01' W 090°47'3 5.4
2017-Apr-04 11:00N 29°59' W 090°50'3 7.1
2017-Apr-04 10:30N 30°03' W 090°50'3 5.8
2017-Apr-04 09:58N 30°04' W 090°54'3 6.1
2017-Apr-04 09:29N 30°07' W 090°55'0 0.1
2017-Apr-04 08:57N 30°07' W 090°55'0 0.0
2017-Apr-04 08:30N 30°07' W 090°55'0 0.0
2017-Apr-04 06:59N 30°07' W 090°55'0 0.0
2017-Apr-04 06:30N 30°07' W 090°55'0 0.0
2017-Apr-04 05:09N 30°07' W 090°55'0 0.0
2017-Apr-04 04:04N 30°07' W 090°55'0 0.0
2017-Apr-04 03:59N 30°07' W 090°55'0 0.0
2017-Apr-04 03:30N 30°07' W 090°55'0 0.0
2017-Apr-04 02:29N 30°07' W 090°55'32 0.7
2017-Apr-02 04:51N 29°56' W 090°20'  
Track history (hours):
 
Tides and Currents Weather Stations Pressure Air Temp Water Temp Dewpoint Dewpoint Depression Visibility Wind Speed Wind Dir Waves Ship Positions

James L. Oberstar

Owner: Destin Trading Corporation, harahan, LA. More information available from US FCC via Universal Licensing System and Coast Guard Vessel Documentation Center.

Last reported at 2017-Apr-04 14:47 UTC. Time now 2017-May-26 14:57 UTC.
Position N 29°59' W 090°24'.
Warning: this ship's position is 52 days out of date.

Length 26 m.

Type: Towing. MMSI: 367052120.

Date/timePositionNaut miles runAvg speedWind from/ knotsBaromVisibWave heightAir tempDewpointWater temp
2017-Apr-04 14:47N 29°59' W 090°24'5 5.9
2017-Apr-04 13:55N 30°02' W 090°28'3 6.6
2017-Apr-04 13:25N 30°03' W 090°32'11 6.7
2017-Apr-04 11:50N 30°01' W 090°44'2 7.0
2017-Apr-04 11:29N 30°01' W 090°47'3 5.4
2017-Apr-04 11:00N 29°59' W 090°50'3 7.1
2017-Apr-04 10:30N 30°03' W 090°50'3 5.8
2017-Apr-04 09:58N 30°04' W 090°54'3 6.1
2017-Apr-04 09:29N 30°07' W 090°55'0 0.1
2017-Apr-04 08:57N 30°07' W 090°55'0 0.0
2017-Apr-04 08:30N 30°07' W 090°55'0 0.0
2017-Apr-04 06:59N 30°07' W 090°55'0 0.0
2017-Apr-04 06:30N 30°07' W 090°55'0 0.0
2017-Apr-04 05:09N 30°07' W 090°55'0 0.0
2017-Apr-04 04:04N 30°07' W 090°55'0 0.0
2017-Apr-04 03:59N 30°07' W 090°55'0 0.0
2017-Apr-04 03:30N 30°07' W 090°55'0 0.0
2017-Apr-04 02:29N 30°07' W 090°55'32 0.7
2017-Apr-02 04:51N 29°56' W 090°20'  

Dump ship's entire track history